Sao Jorge, Brazil
Current Conditions -  °F | °C
As of 9:00 AM on Wednesday 28 Jan 2015 (Local Time) from SBPF Reporting Station
Broken Clouds Broken Clouds  
Wind Chill: 68°   Ceiling: 9000
Heat Index: 68°   Visibility: 6mi
Dew Point: 66°   Wind: 12mph
Humidity: 94%   Direction: 50°NE
Pressure: 29.94"   Gusts: NA
Location:  28.5°S, 51.7°W
Report Text: SBPF 281100Z 05010KT 9999 FEW005 BKN090 20/19 Q1014
Loading
Personal Weather Stations






























Interactive Weather Map New forecast layout! Learn more

10-Day Weather Forecast

Advertisements
Track Severe Weather on mobile